sensor_id;sensor_type;location;lat;lon;timestamp;temperature;humidity
30764;DHT22;17497;51.476;7.770;2023-12-04T00:00:33;0.20;99.90
30764;DHT22;17497;51.476;7.770;2023-12-04T00:02:59;0.30;99.90
30764;DHT22;17497;51.476;7.770;2023-12-04T00:05:26;0.30;99.90
30764;DHT22;17497;51.476;7.770;2023-12-04T00:07:53;0.20;99.90
30764;DHT22;17497;51.476;7.770;2023-12-04T00:10:20;0.30;99.90
30764;DHT22;17497;51.476;7.770;2023-12-04T00:12:46;0.30;99.90
30764;DHT22;17497;51.476;7.770;2023-12-04T00:15:13;0.30;99.90
30764;DHT22;17497;51.476;7.770;2023-12-04T00:17:40;0.20;99.90
30764;DHT22;17497;51.476;7.770;2023-12-04T00:20:07;0.30;99.90
30764;DHT22;17497;51.476;7.770;2023-12-04T00:22:35;0.30;99.90
30764;DHT22;17497;51.476;7.770;2023-12-04T00:25:03;0.30;99.90
30764;DHT22;17497;51.476;7.770;2023-12-04T00:27:29;0.40;99.90
30764;DHT22;17497;51.476;7.770;2023-12-04T00:29:56;0.30;99.90
30764;DHT22;17497;51.476;7.770;2023-12-04T00:32:23;0.40;99.90
30764;DHT22;17497;51.476;7.770;2023-12-04T00:34:51;0.30;99.90
30764;DHT22;17497;51.476;7.770;2023-12-04T00:37:18;0.30;99.90
30764;DHT22;17497;51.476;7.770;2023-12-04T00:39:45;0.30;99.90
30764;DHT22;17497;51.476;7.770;2023-12-04T00:42:11;0.40;99.90
30764;DHT22;17497;51.476;7.770;2023-12-04T00:44:39;0.40;99.90
30764;DHT22;17497;51.476;7.770;2023-12-04T00:47:06;0.40;99.90
30764;DHT22;17497;51.476;7.770;2023-12-04T00:49:33;0.40;99.90
30764;DHT22;17497;51.476;7.770;2023-12-04T00:52:00;0.40;99.90
30764;DHT22;17497;51.476;7.770;2023-12-04T00:54:26;0.50;99.90
30764;DHT22;17497;51.476;7.770;2023-12-04T00:56:55;0.50;99.90
30764;DHT22;17497;51.476;7.770;2023-12-04T00:59:22;0.60;99.90
30764;DHT22;17497;51.476;7.770;2023-12-04T01:01:49;0.60;99.90
30764;DHT22;17497;51.476;7.770;2023-12-04T01:04:15;0.60;99.90
30764;DHT22;17497;51.476;7.770;2023-12-04T01:06:42;0.60;99.90
30764;DHT22;17497;51.476;7.770;2023-12-04T01:09:08;0.60;99.90
30764;DHT22;17497;51.476;7.770;2023-12-04T01:11:35;0.60;99.90
30764;DHT22;17497;51.476;7.770;2023-12-04T01:14:03;0.60;99.90
30764;DHT22;17497;51.476;7.770;2023-12-04T01:16:29;0.70;99.90
30764;DHT22;17497;51.476;7.770;2023-12-04T01:18:57;0.70;99.90
30764;DHT22;17497;51.476;7.770;2023-12-04T01:21:33;0.70;99.90
30764;DHT22;17497;51.476;7.770;2023-12-04T01:24:20;0.80;99.90
30764;DHT22;17497;51.476;7.770;2023-12-04T01:26:47;0.80;99.90
30764;DHT22;17497;51.476;7.770;2023-12-04T01:29:14;0.80;99.90
30764;DHT22;17497;51.476;7.770;2023-12-04T01:31:41;0.90;99.90
30764;DHT22;17497;51.476;7.770;2023-12-04T01:34:13;0.90;99.90
30764;DHT22;17497;51.476;7.770;2023-12-04T01:36:40;0.90;99.90
30764;DHT22;17497;51.476;7.770;2023-12-04T01:39:07;0.90;99.90
30764;DHT22;17497;51.476;7.770;2023-12-04T01:41:34;0.90;99.90
30764;DHT22;17497;51.476;7.770;2023-12-04T01:44:01;0.90;99.90
30764;DHT22;17497;51.476;7.770;2023-12-04T01:46:28;0.90;99.90
30764;DHT22;17497;51.476;7.770;2023-12-04T01:48:55;1.00;99.90
30764;DHT22;17497;51.476;7.770;2023-12-04T01:51:22;0.90;99.90
30764;DHT22;17497;51.476;7.770;2023-12-04T01:53:49;0.90;99.90
30764;DHT22;17497;51.476;7.770;2023-12-04T01:56:16;0.90;99.90
30764;DHT22;17497;51.476;7.770;2023-12-04T01:58:43;0.90;99.90
30764;DHT22;17497;51.476;7.770;2023-12-04T02:01:10;1.00;99.90
30764;DHT22;17497;51.476;7.770;2023-12-04T02:03:37;1.00;99.90
30764;DHT22;17497;51.476;7.770;2023-12-04T02:06:04;0.90;99.90
30764;DHT22;17497;51.476;7.770;2023-12-04T02:08:32;1.00;99.90
30764;DHT22;17497;51.476;7.770;2023-12-04T02:10:59;1.00;99.90
30764;DHT22;17497;51.476;7.770;2023-12-04T02:13:25;1.00;99.90
30764;DHT22;17497;51.476;7.770;2023-12-04T02:15:53;1.00;99.90
30764;DHT22;17497;51.476;7.770;2023-12-04T02:18:20;1.00;99.90
30764;DHT22;17497;51.476;7.770;2023-12-04T02:20:47;1.00;99.90
30764;DHT22;17497;51.476;7.770;2023-12-04T02:23:14;1.00;99.90
30764;DHT22;17497;51.476;7.770;2023-12-04T02:25:41;1.00;99.90
30764;DHT22;17497;51.476;7.770;2023-12-04T02:28:09;1.00;99.90
30764;DHT22;17497;51.476;7.770;2023-12-04T02:30:41;1.00;99.90
30764;DHT22;17497;51.476;7.770;2023-12-04T02:33:12;1.00;99.90
30764;DHT22;17497;51.476;7.770;2023-12-04T02:35:40;1.00;99.90
30764;DHT22;17497;51.476;7.770;2023-12-04T02:38:08;1.00;99.90
30764;DHT22;17497;51.476;7.770;2023-12-04T02:40:38;1.00;99.90
30764;DHT22;17497;51.476;7.770;2023-12-04T03:24:18;1.40;99.90
30764;DHT22;17497;51.476;7.770;2023-12-04T03:26:44;1.50;99.90
30764;DHT22;17497;51.476;7.770;2023-12-04T03:29:11;1.50;99.90
30764;DHT22;17497;51.476;7.770;2023-12-04T03:31:38;1.50;99.90
30764;DHT22;17497;51.476;7.770;2023-12-04T03:34:05;1.50;99.90
30764;DHT22;17497;51.476;7.770;2023-12-04T03:36:31;1.50;99.90
30764;DHT22;17497;51.476;7.770;2023-12-04T03:38:58;1.50;99.90
30764;DHT22;17497;51.476;7.770;2023-12-04T03:41:25;1.40;99.90
30764;DHT22;17497;51.476;7.770;2023-12-04T03:43:51;1.50;99.90
30764;DHT22;17497;51.476;7.770;2023-12-04T03:46:18;1.40;99.90
30764;DHT22;17497;51.476;7.770;2023-12-04T03:48:46;1.40;99.90
30764;DHT22;17497;51.476;7.770;2023-12-04T03:51:12;1.40;99.90
30764;DHT22;17497;51.476;7.770;2023-12-04T03:53:39;1.40;99.90
30764;DHT22;17497;51.476;7.770;2023-12-04T03:56:06;1.40;99.90
30764;DHT22;17497;51.476;7.770;2023-12-04T03:58:32;1.40;99.90
30764;DHT22;17497;51.476;7.770;2023-12-04T04:00:59;1.50;99.90
30764;DHT22;17497;51.476;7.770;2023-12-04T04:03:26;1.50;99.90
30764;DHT22;17497;51.476;7.770;2023-12-04T04:05:53;1.50;99.90
30764;DHT22;17497;51.476;7.770;2023-12-04T04:08:19;1.50;99.90
30764;DHT22;17497;51.476;7.770;2023-12-04T04:10:46;1.50;99.90
30764;DHT22;17497;51.476;7.770;2023-12-04T04:13:13;1.50;99.90
30764;DHT22;17497;51.476;7.770;2023-12-04T04:15:39;1.50;99.90
30764;DHT22;17497;51.476;7.770;2023-12-04T04:18:06;1.50;99.90
30764;DHT22;17497;51.476;7.770;2023-12-04T04:20:33;1.50;99.90
30764;DHT22;17497;51.476;7.770;2023-12-04T04:23:00;1.50;99.90
30764;DHT22;17497;51.476;7.770;2023-12-04T04:25:26;1.50;99.90
30764;DHT22;17497;51.476;7.770;2023-12-04T04:27:53;1.60;99.90
30764;DHT22;17497;51.476;7.770;2023-12-04T04:30:19;1.60;99.90
30764;DHT22;17497;51.476;7.770;2023-12-04T04:32:46;1.60;99.90
30764;DHT22;17497;51.476;7.770;2023-12-04T04:35:13;1.60;99.90
30764;DHT22;17497;51.476;7.770;2023-12-04T04:37:39;1.60;99.90
30764;DHT22;17497;51.476;7.770;2023-12-04T04:40:10;1.60;99.90
30764;DHT22;17497;51.476;7.770;2023-12-04T04:42:37;1.50;99.90
30764;DHT22;17497;51.476;7.770;2023-12-04T04:45:03;1.50;99.90
30764;DHT22;17497;51.476;7.770;2023-12-04T04:47:30;1.50;99.90
30764;DHT22;17497;51.476;7.770;2023-12-04T04:49:57;1.50;99.90
30764;DHT22;17497;51.476;7.770;2023-12-04T04:52:23;1.50;99.90
30764;DHT22;17497;51.476;7.770;2023-12-04T04:54:50;1.50;99.90
30764;DHT22;17497;51.476;7.770;2023-12-04T04:57:17;1.50;99.90
30764;DHT22;17497;51.476;7.770;2023-12-04T04:59:43;1.50;99.90
30764;DHT22;17497;51.476;7.770;2023-12-04T05:02:10;1.50;99.90
30764;DHT22;17497;51.476;7.770;2023-12-04T05:04:37;1.50;99.90
30764;DHT22;17497;51.476;7.770;2023-12-04T05:07:04;1.40;99.90
30764;DHT22;17497;51.476;7.770;2023-12-04T05:09:30;1.40;99.90
30764;DHT22;17497;51.476;7.770;2023-12-04T05:12:00;1.30;99.90
30764;DHT22;17497;51.476;7.770;2023-12-04T05:14:26;1.30;99.90
30764;DHT22;17497;51.476;7.770;2023-12-04T05:16:53;1.30;99.90
30764;DHT22;17497;51.476;7.770;2023-12-04T05:19:20;1.20;99.90
30764;DHT22;17497;51.476;7.770;2023-12-04T05:21:47;1.20;99.90
30764;DHT22;17497;51.476;7.770;2023-12-04T05:24:16;1.20;99.90
30764;DHT22;17497;51.476;7.770;2023-12-04T05:26:43;1.10;99.90
30764;DHT22;17497;51.476;7.770;2023-12-04T05:29:09;1.10;99.90
30764;DHT22;17497;51.476;7.770;2023-12-04T05:31:36;1.10;99.90
30764;DHT22;17497;51.476;7.770;2023-12-04T05:34:03;1.30;99.90
30764;DHT22;17497;51.476;7.770;2023-12-04T05:36:30;1.30;99.90
30764;DHT22;17497;51.476;7.770;2023-12-04T05:38:56;1.40;99.90
30764;DHT22;17497;51.476;7.770;2023-12-04T05:41:26;1.40;99.90
30764;DHT22;17497;51.476;7.770;2023-12-04T05:43:53;1.50;99.90
30764;DHT22;17497;51.476;7.770;2023-12-04T05:46:20;1.50;99.90
30764;DHT22;17497;51.476;7.770;2023-12-04T05:48:47;1.50;99.90
30764;DHT22;17497;51.476;7.770;2023-12-04T05:51:14;1.50;99.90
30764;DHT22;17497;51.476;7.770;2023-12-04T05:53:42;1.40;99.90
30764;DHT22;17497;51.476;7.770;2023-12-04T05:56:08;1.40;99.90
30764;DHT22;17497;51.476;7.770;2023-12-04T05:58:35;1.40;99.90
30764;DHT22;17497;51.476;7.770;2023-12-04T06:01:02;1.40;99.90
30764;DHT22;17497;51.476;7.770;2023-12-04T06:03:29;1.40;99.90
30764;DHT22;17497;51.476;7.770;2023-12-04T06:05:55;1.40;99.90
30764;DHT22;17497;51.476;7.770;2023-12-04T06:08:24;1.40;99.90
30764;DHT22;17497;51.476;7.770;2023-12-04T06:10:51;1.40;99.90
30764;DHT22;17497;51.476;7.770;2023-12-04T06:13:20;1.40;99.90
30764;DHT22;17497;51.476;7.770;2023-12-04T06:15:46;1.40;99.90
30764;DHT22;17497;51.476;7.770;2023-12-04T06:18:13;1.40;99.90
30764;DHT22;17497;51.476;7.770;2023-12-04T06:20:40;1.30;99.90
30764;DHT22;17497;51.476;7.770;2023-12-04T06:23:07;1.30;99.90
30764;DHT22;17497;51.476;7.770;2023-12-04T06:25:33;1.30;99.90
30764;DHT22;17497;51.476;7.770;2023-12-04T06:28:01;1.30;99.90
30764;DHT22;17497;51.476;7.770;2023-12-04T06:30:27;1.30;99.90
30764;DHT22;17497;51.476;7.770;2023-12-04T06:32:54;1.40;99.90
30764;DHT22;17497;51.476;7.770;2023-12-04T06:35:21;1.40;99.90
30764;DHT22;17497;51.476;7.770;2023-12-04T06:37:48;1.40;99.90
30764;DHT22;17497;51.476;7.770;2023-12-04T06:40:15;1.40;99.90
30764;DHT22;17497;51.476;7.770;2023-12-04T06:42:42;1.40;99.90
30764;DHT22;17497;51.476;7.770;2023-12-04T06:45:09;1.40;99.90
30764;DHT22;17497;51.476;7.770;2023-12-04T06:47:36;1.40;99.90
30764;DHT22;17497;51.476;7.770;2023-12-04T06:50:03;1.40;99.90
30764;DHT22;17497;51.476;7.770;2023-12-04T06:52:30;1.40;99.90
30764;DHT22;17497;51.476;7.770;2023-12-04T06:54:56;1.40;99.90
30764;DHT22;17497;51.476;7.770;2023-12-04T06:57:23;1.40;99.90
30764;DHT22;17497;51.476;7.770;2023-12-04T06:59:50;1.40;99.90
30764;DHT22;17497;51.476;7.770;2023-12-04T07:02:16;1.30;99.90
30764;DHT22;17497;51.476;7.770;2023-12-04T07:04:43;1.30;99.90
30764;DHT22;17497;51.476;7.770;2023-12-04T07:07:10;1.30;99.90
30764;DHT22;17497;51.476;7.770;2023-12-04T07:09:38;1.30;99.90
30764;DHT22;17497;51.476;7.770;2023-12-04T07:12:05;1.40;99.90
30764;DHT22;17497;51.476;7.770;2023-12-04T07:14:33;1.40;99.90
30764;DHT22;17497;51.476;7.770;2023-12-04T07:17:00;1.40;99.90
30764;DHT22;17497;51.476;7.770;2023-12-04T07:19:26;1.40;99.90
30764;DHT22;17497;51.476;7.770;2023-12-04T07:21:53;1.40;99.90
30764;DHT22;17497;51.476;7.770;2023-12-04T07:24:20;1.40;99.90
30764;DHT22;17497;51.476;7.770;2023-12-04T07:26:47;1.40;99.90
30764;DHT22;17497;51.476;7.770;2023-12-04T07:29:13;1.40;99.90
30764;DHT22;17497;51.476;7.770;2023-12-04T07:31:43;1.40;99.90
30764;DHT22;17497;51.476;7.770;2023-12-04T07:34:10;1.40;99.90
30764;DHT22;17497;51.476;7.770;2023-12-04T07:36:36;1.40;99.90
30764;DHT22;17497;51.476;7.770;2023-12-04T07:39:03;1.50;99.90
30764;DHT22;17497;51.476;7.770;2023-12-04T07:41:32;1.50;99.90
30764;DHT22;17497;51.476;7.770;2023-12-04T07:43:59;1.50;99.90
30764;DHT22;17497;51.476;7.770;2023-12-04T07:46:26;1.50;99.90
30764;DHT22;17497;51.476;7.770;2023-12-04T07:48:53;1.60;99.90
30764;DHT22;17497;51.476;7.770;2023-12-04T07:51:22;1.50;99.90
30764;DHT22;17497;51.476;7.770;2023-12-04T07:53:49;1.50;99.90
30764;DHT22;17497;51.476;7.770;2023-12-04T07:56:15;1.50;99.90
30764;DHT22;17497;51.476;7.770;2023-12-04T07:58:42;1.50;99.90
30764;DHT22;17497;51.476;7.770;2023-12-04T08:01:09;1.50;99.90
30764;DHT22;17497;51.476;7.770;2023-12-04T08:03:36;1.50;99.90
30764;DHT22;17497;51.476;7.770;2023-12-04T08:06:02;1.60;99.90
30764;DHT22;17497;51.476;7.770;2023-12-04T08:08:29;1.60;99.90
30764;DHT22;17497;51.476;7.770;2023-12-04T08:10:57;1.60;99.90
30764;DHT22;17497;51.476;7.770;2023-12-04T08:13:24;1.60;99.90
30764;DHT22;17497;51.476;7.770;2023-12-04T08:15:51;1.60;99.90
30764;DHT22;17497;51.476;7.770;2023-12-04T08:18:18;1.70;99.90
30764;DHT22;17497;51.476;7.770;2023-12-04T08:20:44;1.60;99.90
30764;DHT22;17497;51.476;7.770;2023-12-04T08:23:11;1.60;99.90
30764;DHT22;17497;51.476;7.770;2023-12-04T08:25:38;1.70;99.90
30764;DHT22;17497;51.476;7.770;2023-12-04T08:28:05;1.70;99.90
30764;DHT22;17497;51.476;7.770;2023-12-04T08:30:32;1.70;99.90
30764;DHT22;17497;51.476;7.770;2023-12-04T08:32:59;1.80;99.90
30764;DHT22;17497;51.476;7.770;2023-12-04T08:35:26;1.90;99.90
30764;DHT22;17497;51.476;7.770;2023-12-04T08:37:52;1.90;99.90
30764;DHT22;17497;51.476;7.770;2023-12-04T08:40:19;1.90;99.90
30764;DHT22;17497;51.476;7.770;2023-12-04T08:42:46;1.90;99.90
30764;DHT22;17497;51.476;7.770;2023-12-04T08:45:13;1.90;99.90
30764;DHT22;17497;51.476;7.770;2023-12-04T08:47:40;2.00;99.90
30764;DHT22;17497;51.476;7.770;2023-12-04T08:50:07;2.00;99.90
30764;DHT22;17497;51.476;7.770;2023-12-04T08:52:33;2.00;99.90
30764;DHT22;17497;51.476;7.770;2023-12-04T08:55:00;2.10;99.90
30764;DHT22;17497;51.476;7.770;2023-12-04T08:57:28;2.10;99.90
30764;DHT22;17497;51.476;7.770;2023-12-04T08:59:55;2.20;99.90
30764;DHT22;17497;51.476;7.770;2023-12-04T09:02:21;2.30;99.90
30764;DHT22;17497;51.476;7.770;2023-12-04T09:04:48;2.30;99.90
30764;DHT22;17497;51.476;7.770;2023-12-04T09:07:15;2.40;99.90
30764;DHT22;17497;51.476;7.770;2023-12-04T09:09:45;2.40;99.90
30764;DHT22;17497;51.476;7.770;2023-12-04T09:12:13;2.30;99.90
30764;DHT22;17497;51.476;7.770;2023-12-04T09:14:39;2.40;99.90
30764;DHT22;17497;51.476;7.770;2023-12-04T09:17:06;2.40;99.90
30764;DHT22;17497;51.476;7.770;2023-12-04T09:19:33;2.40;99.90
30764;DHT22;17497;51.476;7.770;2023-12-04T09:22:00;2.30;99.90
30764;DHT22;17497;51.476;7.770;2023-12-04T09:24:33;2.30;99.90
30764;DHT22;17497;51.476;7.770;2023-12-04T09:27:00;2.30;99.90
30764;DHT22;17497;51.476;7.770;2023-12-04T09:29:27;2.30;99.90
30764;DHT22;17497;51.476;7.770;2023-12-04T09:31:54;2.40;99.90
30764;DHT22;17497;51.476;7.770;2023-12-04T09:34:21;2.40;99.90
30764;DHT22;17497;51.476;7.770;2023-12-04T09:36:49;2.50;99.90
30764;DHT22;17497;51.476;7.770;2023-12-04T09:39:17;2.40;99.90
30764;DHT22;17497;51.476;7.770;2023-12-04T09:41:44;2.50;99.90
30764;DHT22;17497;51.476;7.770;2023-12-04T09:44:12;2.50;99.90
30764;DHT22;17497;51.476;7.770;2023-12-04T09:46:39;2.50;99.90
30764;DHT22;17497;51.476;7.770;2023-12-04T09:49:06;2.40;99.90
30764;DHT22;17497;51.476;7.770;2023-12-04T09:51:34;2.40;99.90
30764;DHT22;17497;51.476;7.770;2023-12-04T09:54:02;2.40;99.90
30764;DHT22;17497;51.476;7.770;2023-12-04T09:56:29;2.40;99.90
30764;DHT22;17497;51.476;7.770;2023-12-04T09:59:00;2.40;99.90
30764;DHT22;17497;51.476;7.770;2023-12-04T10:01:29;2.40;99.90
30764;DHT22;17497;51.476;7.770;2023-12-04T10:03:57;2.30;99.90
30764;DHT22;17497;51.476;7.770;2023-12-04T10:06:27;2.40;99.90
30764;DHT22;17497;51.476;7.770;2023-12-04T10:08:57;2.40;99.90
30764;DHT22;17497;51.476;7.770;2023-12-04T10:11:25;2.40;99.90
30764;DHT22;17497;51.476;7.770;2023-12-04T10:13:54;2.50;99.90
30764;DHT22;17497;51.476;7.770;2023-12-04T10:16:34;2.50;99.90
30764;DHT22;17497;51.476;7.770;2023-12-04T10:19:14;2.60;99.90
30764;DHT22;17497;51.476;7.770;2023-12-04T10:21:42;2.60;99.90
30764;DHT22;17497;51.476;7.770;2023-12-04T10:24:09;2.60;99.90
30764;DHT22;17497;51.476;7.770;2023-12-04T10:26:36;2.50;99.90
30764;DHT22;17497;51.476;7.770;2023-12-04T10:29:03;2.60;99.90
30764;DHT22;17497;51.476;7.770;2023-12-04T10:31:33;2.70;99.90
30764;DHT22;17497;51.476;7.770;2023-12-04T10:34:01;2.60;99.90
30764;DHT22;17497;51.476;7.770;2023-12-04T10:36:28;2.70;99.90
30764;DHT22;17497;51.476;7.770;2023-12-04T10:38:58;2.90;99.90
30764;DHT22;17497;51.476;7.770;2023-12-04T10:41:26;2.90;99.90
30764;DHT22;17497;51.476;7.770;2023-12-04T10:43:53;2.90;99.90
30764;DHT22;17497;51.476;7.770;2023-12-04T10:46:27;2.90;99.90
30764;DHT22;17497;51.476;7.770;2023-12-04T10:48:54;2.90;99.90
30764;DHT22;17497;51.476;7.770;2023-12-04T10:51:21;2.90;99.90
30764;DHT22;17497;51.476;7.770;2023-12-04T10:53:48;3.00;99.90
30764;DHT22;17497;51.476;7.770;2023-12-04T10:56:19;3.00;99.90
30764;DHT22;17497;51.476;7.770;2023-12-04T10:58:51;3.00;99.90
30764;DHT22;17497;51.476;7.770;2023-12-04T11:01:19;3.00;99.90
30764;DHT22;17497;51.476;7.770;2023-12-04T11:03:48;3.00;99.90
30764;DHT22;17497;51.476;7.770;2023-12-04T11:06:16;2.90;99.90
30764;DHT22;17497;51.476;7.770;2023-12-04T11:08:42;2.80;99.90
30764;DHT22;17497;51.476;7.770;2023-12-04T11:11:11;2.80;99.90
30764;DHT22;17497;51.476;7.770;2023-12-04T11:13:39;2.70;99.90
30764;DHT22;17497;51.476;7.770;2023-12-04T11:16:23;2.70;99.90
30764;DHT22;17497;51.476;7.770;2023-12-04T11:18:51;2.80;99.90
30764;DHT22;17497;51.476;7.770;2023-12-04T11:21:21;2.80;99.90
30764;DHT22;17497;51.476;7.770;2023-12-04T11:23:48;2.80;99.90
30764;DHT22;17497;51.476;7.770;2023-12-04T11:26:16;2.80;99.90
30764;DHT22;17497;51.476;7.770;2023-12-04T11:28:43;2.70;99.90
30764;DHT22;17497;51.476;7.770;2023-12-04T11:31:10;2.80;99.90
30764;DHT22;17497;51.476;7.770;2023-12-04T11:33:38;2.80;99.90
30764;DHT22;17497;51.476;7.770;2023-12-04T11:36:06;2.80;99.90
30764;DHT22;17497;51.476;7.770;2023-12-04T11:38:35;2.90;99.90
30764;DHT22;17497;51.476;7.770;2023-12-04T11:41:14;2.90;99.90
30764;DHT22;17497;51.476;7.770;2023-12-04T11:43:46;2.90;99.90
30764;DHT22;17497;51.476;7.770;2023-12-04T11:46:19;2.80;99.90
30764;DHT22;17497;51.476;7.770;2023-12-04T11:48:50;2.80;99.90
30764;DHT22;17497;51.476;7.770;2023-12-04T11:54:02;2.80;99.90
30764;DHT22;17497;51.476;7.770;2023-12-04T11:56:31;2.80;99.90
30764;DHT22;17497;51.476;7.770;2023-12-04T11:59:04;2.80;99.90
30764;DHT22;17497;51.476;7.770;2023-12-04T12:01:36;2.90;99.90
30764;DHT22;17497;51.476;7.770;2023-12-04T12:04:06;2.90;99.90
30764;DHT22;17497;51.476;7.770;2023-12-04T12:06:33;2.90;99.90
30764;DHT22;17497;51.476;7.770;2023-12-04T12:09:00;2.90;99.90
30764;DHT22;17497;51.476;7.770;2023-12-04T12:11:29;3.00;99.90
30764;DHT22;17497;51.476;7.770;2023-12-04T12:13:56;2.90;99.90
30764;DHT22;17497;51.476;7.770;2023-12-04T12:16:23;3.00;99.90
30764;DHT22;17497;51.476;7.770;2023-12-04T12:18:49;3.00;99.90
30764;DHT22;17497;51.476;7.770;2023-12-04T12:21:17;3.00;99.90
30764;DHT22;17497;51.476;7.770;2023-12-04T12:23:47;2.90;99.90
30764;DHT22;17497;51.476;7.770;2023-12-04T12:26:14;2.80;99.90
30764;DHT22;17497;51.476;7.770;2023-12-04T12:28:41;2.80;99.90
30764;DHT22;17497;51.476;7.770;2023-12-04T12:31:08;2.90;99.90
30764;DHT22;17497;51.476;7.770;2023-12-04T12:33:35;2.90;99.90
30764;DHT22;17497;51.476;7.770;2023-12-04T12:36:08;2.90;99.90
30764;DHT22;17497;51.476;7.770;2023-12-04T12:38:36;3.00;99.90
30764;DHT22;17497;51.476;7.770;2023-12-04T12:41:07;2.90;99.90
30764;DHT22;17497;51.476;7.770;2023-12-04T12:43:38;2.90;99.90
30764;DHT22;17497;51.476;7.770;2023-12-04T12:46:05;2.80;99.90
30764;DHT22;17497;51.476;7.770;2023-12-04T12:48:32;2.80;99.90
30764;DHT22;17497;51.476;7.770;2023-12-04T12:50:59;2.90;99.90
30764;DHT22;17497;51.476;7.770;2023-12-04T12:53:25;3.00;99.90
30764;DHT22;17497;51.476;7.770;2023-12-04T12:55:52;3.00;99.90
30764;DHT22;17497;51.476;7.770;2023-12-04T12:58:19;3.00;99.90
30764;DHT22;17497;51.476;7.770;2023-12-04T13:00:47;3.00;99.90
30764;DHT22;17497;51.476;7.770;2023-12-04T13:03:15;3.10;99.90
30764;DHT22;17497;51.476;7.770;2023-12-04T13:05:42;3.10;99.90
30764;DHT22;17497;51.476;7.770;2023-12-04T13:08:09;3.10;99.90
30764;DHT22;17497;51.476;7.770;2023-12-04T13:10:38;3.10;99.90
30764;DHT22;17497;51.476;7.770;2023-12-04T13:13:09;3.00;99.90
30764;DHT22;17497;51.476;7.770;2023-12-04T13:15:35;3.00;99.90
30764;DHT22;17497;51.476;7.770;2023-12-04T13:18:02;3.20;99.90
30764;DHT22;17497;51.476;7.770;2023-12-04T13:20:29;3.30;99.90
30764;DHT22;17497;51.476;7.770;2023-12-04T13:22:56;3.30;99.90
30764;DHT22;17497;51.476;7.770;2023-12-04T13:25:26;3.20;99.90
30764;DHT22;17497;51.476;7.770;2023-12-04T13:27:56;3.10;99.90
30764;DHT22;17497;51.476;7.770;2023-12-04T13:30:24;3.00;99.90
30764;DHT22;17497;51.476;7.770;2023-12-04T13:32:50;3.00;99.90
30764;DHT22;17497;51.476;7.770;2023-12-04T13:35:18;3.00;99.90
30764;DHT22;17497;51.476;7.770;2023-12-04T13:37:45;2.90;99.90
30764;DHT22;17497;51.476;7.770;2023-12-04T13:40:12;2.90;99.90
30764;DHT22;17497;51.476;7.770;2023-12-04T13:42:42;2.80;99.90
30764;DHT22;17497;51.476;7.770;2023-12-04T13:45:28;2.80;99.90
30764;DHT22;17497;51.476;7.770;2023-12-04T13:47:54;2.80;99.90
30764;DHT22;17497;51.476;7.770;2023-12-04T13:50:21;2.70;99.90
30764;DHT22;17497;51.476;7.770;2023-12-04T13:52:48;2.70;99.90
30764;DHT22;17497;51.476;7.770;2023-12-04T13:55:23;2.70;99.90
30764;DHT22;17497;51.476;7.770;2023-12-04T13:58:10;2.70;99.90
30764;DHT22;17497;51.476;7.770;2023-12-04T14:00:53;2.70;99.90
30764;DHT22;17497;51.476;7.770;2023-12-04T14:03:20;2.60;99.90
30764;DHT22;17497;51.476;7.770;2023-12-04T14:05:46;2.50;99.90
30764;DHT22;17497;51.476;7.770;2023-12-04T14:08:14;2.50;99.90
30764;DHT22;17497;51.476;7.770;2023-12-04T14:10:41;2.50;99.90
30764;DHT22;17497;51.476;7.770;2023-12-04T14:13:07;2.40;99.90
30764;DHT22;17497;51.476;7.770;2023-12-04T14:15:34;2.40;99.90
30764;DHT22;17497;51.476;7.770;2023-12-04T14:18:04;2.40;99.90
30764;DHT22;17497;51.476;7.770;2023-12-04T14:20:31;2.40;99.90
30764;DHT22;17497;51.476;7.770;2023-12-04T14:22:57;2.40;99.90
30764;DHT22;17497;51.476;7.770;2023-12-04T14:25:24;2.40;99.90
30764;DHT22;17497;51.476;7.770;2023-12-04T14:27:51;2.50;99.90
30764;DHT22;17497;51.476;7.770;2023-12-04T14:30:18;2.40;99.90
30764;DHT22;17497;51.476;7.770;2023-12-04T14:32:46;2.40;99.90
30764;DHT22;17497;51.476;7.770;2023-12-04T14:35:14;2.30;99.90
30764;DHT22;17497;51.476;7.770;2023-12-04T14:37:41;2.30;99.90
30764;DHT22;17497;51.476;7.770;2023-12-04T14:40:08;2.20;99.90
30764;DHT22;17497;51.476;7.770;2023-12-04T14:42:35;2.20;99.90
30764;DHT22;17497;51.476;7.770;2023-12-04T14:45:02;2.30;99.90
30764;DHT22;17497;51.476;7.770;2023-12-04T14:47:29;2.30;99.90
30764;DHT22;17497;51.476;7.770;2023-12-04T14:49:56;2.40;99.90
30764;DHT22;17497;51.476;7.770;2023-12-04T14:52:23;2.40;99.90
30764;DHT22;17497;51.476;7.770;2023-12-04T14:54:50;2.30;99.90
30764;DHT22;17497;51.476;7.770;2023-12-04T14:57:39;2.20;99.90
30764;DHT22;17497;51.476;7.770;2023-12-04T15:00:09;2.20;99.90
30764;DHT22;17497;51.476;7.770;2023-12-04T15:02:37;2.20;99.90
30764;DHT22;17497;51.476;7.770;2023-12-04T15:05:04;2.20;99.90
30764;DHT22;17497;51.476;7.770;2023-12-04T15:07:31;2.30;99.90
30764;DHT22;17497;51.476;7.770;2023-12-04T15:10:11;2.30;99.90
30764;DHT22;17497;51.476;7.770;2023-12-04T15:13:01;2.30;99.90
30764;DHT22;17497;51.476;7.770;2023-12-04T15:15:46;2.20;99.90
30764;DHT22;17497;51.476;7.770;2023-12-04T15:18:32;2.20;99.90
30764;DHT22;17497;51.476;7.770;2023-12-04T15:21:19;2.20;99.90
30764;DHT22;17497;51.476;7.770;2023-12-04T15:23:48;2.20;99.90
30764;DHT22;17497;51.476;7.770;2023-12-04T15:26:15;2.20;99.90
30764;DHT22;17497;51.476;7.770;2023-12-04T15:28:42;2.20;99.90
30764;DHT22;17497;51.476;7.770;2023-12-04T15:31:36;2.20;99.90
30764;DHT22;17497;51.476;7.770;2023-12-04T15:34:08;2.20;99.90
30764;DHT22;17497;51.476;7.770;2023-12-04T15:36:38;2.20;99.90
30764;DHT22;17497;51.476;7.770;2023-12-04T15:39:05;2.30;99.90
30764;DHT22;17497;51.476;7.770;2023-12-04T15:41:32;2.40;99.90
30764;DHT22;17497;51.476;7.770;2023-12-04T15:44:03;2.30;99.90
30764;DHT22;17497;51.476;7.770;2023-12-04T15:46:31;2.30;99.90
30764;DHT22;17497;51.476;7.770;2023-12-04T15:48:58;2.30;99.90
30764;DHT22;17497;51.476;7.770;2023-12-04T15:51:25;2.30;99.90
30764;DHT22;17497;51.476;7.770;2023-12-04T15:54:46;2.40;99.90
30764;DHT22;17497;51.476;7.770;2023-12-04T15:57:22;2.40;99.90
30764;DHT22;17497;51.476;7.770;2023-12-04T15:59:51;2.40;99.90
30764;DHT22;17497;51.476;7.770;2023-12-04T16:02:17;2.50;99.90
30764;DHT22;17497;51.476;7.770;2023-12-04T16:04:47;2.50;99.90
30764;DHT22;17497;51.476;7.770;2023-12-04T16:07:14;2.60;99.90
30764;DHT22;17497;51.476;7.770;2023-12-04T16:09:40;2.60;99.90
30764;DHT22;17497;51.476;7.770;2023-12-04T16:12:07;2.60;99.90
30764;DHT22;17497;51.476;7.770;2023-12-04T16:14:35;2.60;99.90
30764;DHT22;17497;51.476;7.770;2023-12-04T16:17:02;2.60;99.90
30764;DHT22;17497;51.476;7.770;2023-12-04T16:19:29;2.60;99.90
30764;DHT22;17497;51.476;7.770;2023-12-04T16:21:57;2.70;99.90
30764;DHT22;17497;51.476;7.770;2023-12-04T16:24:24;2.70;99.90
30764;DHT22;17497;51.476;7.770;2023-12-04T16:26:54;2.70;99.90
30764;DHT22;17497;51.476;7.770;2023-12-04T16:29:22;2.70;99.90
30764;DHT22;17497;51.476;7.770;2023-12-04T16:31:54;2.70;99.90
30764;DHT22;17497;51.476;7.770;2023-12-04T16:34:21;2.80;99.90